createdAt,value
2017-10-11T00:00:46.399Z,100927.53
2017-10-11T00:03:17.398Z,100925.81
2017-10-11T00:05:48.373Z,100927.93
2017-10-11T00:08:22.135Z,100922.64
2017-10-11T00:10:53.433Z,100929.25
2017-10-11T00:13:24.582Z,100916.07
2017-10-11T00:15:55.871Z,100916.47
2017-10-11T00:18:28.180Z,100923.11
2017-10-11T00:21:03.224Z,100918.72
2017-10-11T00:23:36.405Z,100920.10
2017-10-11T00:26:12.650Z,100920.66
2017-10-11T00:28:44.858Z,100927.70
2017-10-11T00:31:16.439Z,100926.31
2017-10-11T00:33:48.022Z,100923.17
2017-10-11T00:36:21.160Z,100928.82
2017-10-11T00:38:52.194Z,100926.01
2017-10-11T00:41:23.579Z,100920.76
2017-10-11T00:43:55.741Z,100921.55
2017-10-11T00:46:28.451Z,100924.26
2017-10-11T00:49:01.081Z,100924.69
2017-10-11T00:51:33.366Z,100919.34
2017-10-11T00:54:08.882Z,100928.98
2017-10-11T00:56:41.387Z,100918.55
2017-10-11T00:59:14.526Z,100913.30
2017-10-11T01:01:51.449Z,100911.55
2017-10-11T01:04:30.999Z,100913.75
2017-10-11T01:07:12.757Z,100913.86
2017-10-11T01:09:46.766Z,100916.56
2017-10-11T01:12:22.076Z,100917.39
2017-10-11T01:14:54.885Z,100918.72
2017-10-11T01:17:29.121Z,100920.03
2017-10-11T01:20:03.358Z,100912.97
2017-10-11T01:22:38.998Z,100919.28
2017-10-11T01:25:14.211Z,100924.63
2017-10-11T01:27:53.603Z,100925.27
2017-10-11T01:30:26.763Z,100921.11
2017-10-11T01:33:00.473Z,100918.97
2017-10-11T01:35:36.924Z,100908.47
2017-10-11T01:38:18.805Z,100910.22
2017-10-11T01:40:58.488Z,100913.16
2017-10-11T01:43:40.828Z,100913.36
2017-10-11T01:46:18.033Z,100919.87
2017-10-11T01:48:54.140Z,100919.87
2017-10-11T01:51:26.263Z,100916.89
2017-10-11T01:53:57.842Z,100916.33
2017-10-11T01:56:32.872Z,100918.44
2017-10-11T02:01:42.136Z,100928.01
2017-10-11T02:04:14.508Z,100923.98
2017-10-11T02:06:47.000Z,100922.39
2017-10-11T02:09:22.411Z,100915.86
2017-10-11T02:11:55.872Z,100916.75
2017-10-11T02:14:28.089Z,100910.78
2017-10-11T02:17:00.472Z,100912.73
2017-10-11T02:19:36.621Z,100909.80
2017-10-11T02:22:08.805Z,100906.06
2017-10-11T02:24:41.364Z,100908.97
2017-10-11T02:27:14.122Z,100907.55
2017-10-11T02:29:46.128Z,100909.96
2017-10-11T02:32:18.482Z,100909.03
2017-10-11T02:34:50.742Z,100908.94
2017-10-11T02:37:24.775Z,100917.19
2017-10-11T02:39:58.704Z,100918.91
2017-10-11T02:42:32.257Z,100914.05
2017-10-11T02:45:04.184Z,100914.38
2017-10-11T02:47:37.569Z,100911.25
2017-10-11T02:50:12.327Z,100906.66
2017-10-11T02:52:44.378Z,100906.66
2017-10-11T02:55:17.240Z,100908.41
2017-10-11T02:57:50.391Z,100913.75
2017-10-11T03:00:22.465Z,100913.75
2017-10-11T03:02:55.876Z,100920.06
2017-10-11T03:05:27.975Z,100920.86
2017-10-11T03:08:03.619Z,100926.11
2017-10-11T03:10:38.567Z,100924.78
2017-10-11T03:13:10.612Z,100925.58
2017-10-11T03:15:43.716Z,100925.98
2017-10-11T03:18:16.223Z,100924.19
2017-10-11T03:20:48.383Z,100920.23
2017-10-11T03:23:20.977Z,100929.91
2017-10-11T03:25:53.242Z,100922.77
2017-10-11T03:28:25.287Z,100930.13
2017-10-11T03:30:57.645Z,100920.42
2017-10-11T03:33:30.644Z,100925.61
2017-10-11T03:36:04.174Z,100930.36
2017-10-11T03:38:38.349Z,100925.02
2017-10-11T03:41:11.949Z,100930.16
2017-10-11T03:43:44.182Z,100932.73
2017-10-11T03:46:16.125Z,100936.67
2017-10-11T03:48:48.398Z,100940.53
2017-10-11T03:51:20.769Z,100935.15
2017-10-11T03:53:53.040Z,100933.43
2017-10-11T03:56:25.710Z,100932.51
2017-10-11T03:58:57.713Z,100929.07
2017-10-11T04:01:30.549Z,100926.56
2017-10-11T04:04:05.816Z,100932.52
2017-10-11T04:06:41.966Z,100928.08
2017-10-11T04:09:20.930Z,100924.25
2017-10-11T04:11:55.522Z,100924.32
2017-10-11T04:14:29.973Z,100919.89
2017-10-11T04:17:04.784Z,100915.44
2017-10-11T04:19:39.740Z,100921.52
2017-10-11T04:22:16.539Z,100916.20
2017-10-11T04:24:50.996Z,100913.48
2017-10-11T04:27:25.514Z,100912.59
2017-10-11T04:29:59.464Z,100911.31
2017-10-11T04:32:30.726Z,100908.67
2017-10-11T04:35:03.200Z,100912.13
2017-10-11T04:37:39.176Z,100905.10
2017-10-11T04:40:11.562Z,100906.55
2017-10-11T04:42:46.380Z,100908.67
2017-10-11T04:45:17.838Z,100909.80
2017-10-11T04:47:50.678Z,100906.20
2017-10-11T04:50:26.344Z,100916.52
2017-10-11T04:53:01.153Z,100913.93
2017-10-11T04:55:34.644Z,100920.64
2017-10-11T04:58:05.783Z,100923.67
2017-10-11T05:00:37.396Z,100920.98
2017-10-11T05:03:08.544Z,100916.14
2017-10-11T05:05:41.186Z,100922.06
2017-10-11T05:08:12.737Z,100924.59
2017-10-11T05:10:46.361Z,100927.51
2017-10-11T05:13:18.170Z,100926.13
2017-10-11T05:15:50.440Z,100927.11
2017-10-11T05:18:22.229Z,100929.75
2017-10-11T05:21:04.030Z,100934.25
2017-10-11T05:23:40.366Z,100941.38
2017-10-11T05:26:11.890Z,100936.59
2017-10-11T05:28:43.952Z,100933.24
2017-10-11T05:34:44.168Z,100943.48
2017-10-11T05:40:17.155Z,100943.34
2017-10-11T05:43:07.305Z,100947.38
2017-10-11T05:45:39.342Z,100948.00
2017-10-11T05:48:11.272Z,100948.67
2017-10-11T05:53:44.939Z,100957.90
2017-10-11T06:03:01.754Z,100963.67
2017-10-11T06:05:44.974Z,100963.76
2017-10-11T06:12:04.229Z,100965.72
2017-10-11T06:14:53.584Z,100961.45
2017-10-11T06:17:28.948Z,100966.48
2017-10-11T06:22:46.415Z,100961.59
2017-10-11T06:25:18.367Z,100963.58
2017-10-11T06:27:51.705Z,100961.55
2017-10-11T06:33:35.196Z,100968.34
2017-10-11T06:36:07.276Z,100969.45
2017-10-11T06:38:40.661Z,100972.52
2017-10-11T06:41:13.143Z,100975.28
2017-10-11T06:43:45.627Z,100974.95
2017-10-11T06:46:24.352Z,100977.03
2017-10-11T06:48:57.523Z,100982.22
2017-10-11T06:51:30.158Z,100984.17
2017-10-11T06:54:04.146Z,100975.31
2017-10-11T06:56:38.872Z,100979.52
2017-10-11T06:59:11.709Z,100977.55
2017-10-11T07:04:44.830Z,100985.44
2017-10-11T07:10:28.658Z,100984.50
2017-10-11T07:13:05.204Z,100991.92
2017-10-11T07:15:42.114Z,100987.87
2017-10-11T07:18:15.878Z,100991.05
2017-10-11T07:23:52.897Z,100990.80
2017-10-11T07:26:29.608Z,100993.23
2017-10-11T07:29:08.074Z,100994.42
2017-10-11T07:31:46.023Z,100997.67
2017-10-11T07:34:21.011Z,100995.38
2017-10-11T07:36:56.493Z,100998.45
2017-10-11T07:39:40.158Z,100989.98
2017-10-11T07:42:18.426Z,100991.77
2017-10-11T07:44:51.027Z,100991.00
2017-10-11T07:47:27.898Z,100987.45
2017-10-11T07:50:00.529Z,100992.19
2017-10-11T07:55:36.784Z,100996.69
2017-10-11T07:58:12.704Z,100991.58
2017-10-11T08:00:49.352Z,100996.34
2017-10-11T08:03:23.828Z,100992.37
2017-10-11T08:05:57.983Z,100988.93
2017-10-11T08:08:31.198Z,100989.95
2017-10-11T08:14:23.883Z,100978.09
2017-10-11T08:17:08.811Z,100978.83
2017-10-11T08:19:45.126Z,100971.34
2017-10-11T08:22:18.558Z,100976.34
2017-10-11T08:24:51.842Z,100973.47
2017-10-11T08:27:25.335Z,100976.43
2017-10-11T08:32:44.061Z,100985.55
2017-10-11T08:35:20.659Z,100990.06
2017-10-11T08:37:59.836Z,100985.73
2017-10-11T08:46:48.053Z,100987.42
2017-10-11T08:54:36.951Z,100975.48
2017-10-11T08:57:10.557Z,100972.44
2017-10-11T08:59:56.556Z,100981.88
2017-10-11T09:02:31.912Z,100981.86
2017-10-11T09:05:10.506Z,100969.18
2017-10-11T09:07:45.522Z,100968.63
2017-10-11T09:13:18.054Z,100965.63
2017-10-11T09:18:28.436Z,100956.47
2017-10-11T09:21:02.423Z,100952.14
2017-10-11T09:23:34.782Z,100951.47
2017-10-11T09:26:08.319Z,100951.89
2017-10-11T09:28:45.568Z,100952.52
2017-10-11T09:37:36.756Z,100943.56
2017-10-11T09:40:08.808Z,100948.02
2017-10-11T09:42:39.857Z,100943.92
2017-10-11T09:45:11.717Z,100957.67
2017-10-11T09:47:45.909Z,100956.39
2017-10-11T09:50:17.249Z,100959.11
2017-10-11T09:52:49.910Z,100955.12
2017-10-11T09:55:22.423Z,100964.84
2017-10-11T09:57:54.181Z,100966.08
2017-10-11T10:00:42.898Z,100970.07
2017-10-11T10:03:14.836Z,100967.17
2017-10-11T10:05:49.181Z,100967.66
2017-10-11T10:08:25.344Z,100967.02
2017-10-11T10:11:16.747Z,100964.86
2017-10-11T10:16:57.593Z,100959.00
2017-10-11T10:19:33.535Z,100963.31
2017-10-11T10:22:06.623Z,100962.25
2017-10-11T10:24:38.665Z,100967.09
2017-10-11T10:27:14.987Z,100959.03
2017-10-11T10:29:47.752Z,100960.77
2017-10-11T10:32:22.947Z,100959.83
2017-10-11T10:34:56.724Z,100957.14
2017-10-11T10:37:29.161Z,100955.30
2017-10-11T10:40:03.565Z,100957.31
2017-10-11T10:42:35.552Z,100959.05
2017-10-11T10:45:07.915Z,100952.68
2017-10-11T10:47:40.376Z,100955.86
2017-10-11T10:50:13.105Z,100954.66
2017-10-11T10:52:45.865Z,100958.41
2017-10-11T10:55:17.942Z,100954.60
2017-10-11T10:57:51.745Z,100951.72
2017-10-11T11:00:24.361Z,100954.52
2017-10-11T11:02:57.038Z,100953.34
2017-10-11T11:05:43.055Z,100957.29
2017-10-11T11:08:16.024Z,100954.97
2017-10-11T11:10:50.083Z,100949.12
2017-10-11T11:13:23.207Z,100949.34
2017-10-11T11:15:55.964Z,100951.91
2017-10-11T11:18:28.224Z,100948.27
2017-10-11T11:21:00.853Z,100951.45
2017-10-11T11:23:33.032Z,100948.67
2017-10-11T11:26:10.771Z,100939.61
2017-10-11T11:28:42.929Z,100939.03
2017-10-11T11:31:15.232Z,100944.41
2017-10-11T11:33:47.914Z,100934.80
2017-10-11T11:36:20.123Z,100943.41
2017-10-11T11:38:54.347Z,100943.30
2017-10-11T11:41:26.864Z,100936.77
2017-10-11T11:43:58.926Z,100933.55
2017-10-11T11:46:31.291Z,100934.89
2017-10-11T11:49:04.346Z,100933.25
2017-10-11T11:51:36.643Z,100929.14
2017-10-11T11:54:09.203Z,100926.66
2017-10-11T11:56:41.363Z,100926.64
2017-10-11T11:59:13.664Z,100923.00
2017-10-11T12:01:45.875Z,100921.84
2017-10-11T12:04:18.023Z,100919.08
2017-10-11T12:06:52.331Z,100918.82
2017-10-11T12:09:24.564Z,100925.64
2017-10-11T12:11:57.023Z,100915.48
2017-10-11T12:14:30.083Z,100914.87
2017-10-11T12:17:03.281Z,100914.48
2017-10-11T12:19:35.513Z,100904.91
2017-10-11T12:22:08.919Z,100904.48
2017-10-11T12:24:41.060Z,100905.22
2017-10-11T12:27:13.333Z,100910.45
2017-10-11T12:29:45.749Z,100909.89
2017-10-11T12:32:17.984Z,100907.34
2017-10-11T12:34:51.117Z,100900.01
2017-10-11T12:37:23.139Z,100903.05
2017-10-11T12:39:55.924Z,100904.33
2017-10-11T12:42:28.520Z,100901.16
2017-10-11T12:45:00.598Z,100894.69
2017-10-11T12:47:33.299Z,100899.13
2017-10-11T12:50:06.504Z,100893.85
2017-10-11T12:52:38.624Z,100900.59
2017-10-11T12:55:11.172Z,100895.58
2017-10-11T12:57:43.459Z,100893.73
2017-10-11T13:00:19.712Z,100895.92
2017-10-11T13:03:00.330Z,100892.36
2017-10-11T13:05:35.141Z,100892.48
2017-10-11T13:08:10.477Z,100886.48
2017-10-11T13:10:43.595Z,100883.34
2017-10-11T13:13:15.758Z,100881.85
2017-10-11T13:15:54.462Z,100877.18
2017-10-11T13:21:10.852Z,100876.70
2017-10-11T13:23:44.350Z,100872.55
2017-10-11T13:26:20.200Z,100875.16
2017-10-11T13:28:59.137Z,100872.28
2017-10-11T13:31:39.190Z,100880.05
2017-10-11T13:34:22.918Z,100869.57
2017-10-11T13:36:57.432Z,100870.22
2017-10-11T13:39:31.627Z,100872.58
2017-10-11T13:42:04.970Z,100866.63
2017-10-11T13:44:42.998Z,100866.16
2017-10-11T13:47:16.321Z,100865.13
2017-10-11T13:52:50.238Z,100862.95
2017-10-11T13:55:23.192Z,100858.23
2017-10-11T13:57:56.854Z,100863.37
2017-10-11T14:00:31.325Z,100859.98
2017-10-11T14:03:03.831Z,100859.72
2017-10-11T14:05:36.166Z,100860.20
2017-10-11T14:08:09.550Z,100853.59
2017-10-11T14:10:41.817Z,100849.01
2017-10-11T14:13:18.020Z,100848.96
2017-10-11T14:15:53.050Z,100840.59
2017-10-11T14:18:27.567Z,100847.13
2017-10-11T14:21:03.216Z,100844.88
2017-10-11T14:23:37.882Z,100843.95
2017-10-11T14:26:10.336Z,100840.53
2017-10-11T14:28:44.551Z,100845.37
2017-10-11T14:31:20.512Z,100840.77
2017-10-11T14:33:59.697Z,100838.42
2017-10-11T14:36:32.786Z,100846.07
2017-10-11T14:39:14.641Z,100839.18
2017-10-11T14:41:52.293Z,100839.92
2017-10-11T14:44:30.491Z,100831.83
2017-10-11T14:47:19.528Z,100830.37
2017-10-11T14:49:56.440Z,100825.35
2017-10-11T14:52:30.803Z,100827.53
2017-10-11T14:55:16.933Z,100820.38
2017-10-11T14:57:51.881Z,100820.61
2017-10-11T15:00:32.487Z,100825.43
2017-10-11T15:03:14.731Z,100823.55
2017-10-11T15:05:59.991Z,100817.10
2017-10-11T15:08:34.594Z,100823.67
2017-10-11T15:11:07.152Z,100820.47
2017-10-11T15:13:40.282Z,100827.97
2017-10-11T15:16:12.955Z,100823.30
2017-10-11T15:18:47.422Z,100821.54
2017-10-11T15:21:21.710Z,100818.28
2017-10-11T15:23:54.277Z,100819.86
2017-10-11T15:26:27.151Z,100817.58
2017-10-11T15:28:59.740Z,100822.70
2017-10-11T15:31:35.676Z,100817.77
2017-10-11T15:34:10.376Z,100825.80
2017-10-11T15:36:45.285Z,100824.25
2017-10-11T15:39:25.676Z,100822.90
2017-10-11T15:42:00.403Z,100805.05
2017-10-11T15:50:45.616Z,100768.69
2017-10-11T15:53:31.090Z,100779.16
2017-10-11T15:56:09.352Z,100770.91
2017-10-11T15:58:53.234Z,100772.83
2017-10-11T16:01:26.542Z,100778.75
2017-10-11T16:03:57.768Z,100785.93
2017-10-11T16:06:29.569Z,100785.84
2017-10-11T16:09:00.700Z,100791.61
2017-10-11T16:11:37.452Z,100793.48
2017-10-11T16:17:18.043Z,100794.45
2017-10-11T16:23:04.828Z,100794.28
2017-10-11T16:25:37.082Z,100797.06
2017-10-11T16:28:09.564Z,100791.73
2017-10-11T16:30:43.887Z,100795.17
2017-10-11T16:33:16.212Z,100790.80
2017-10-11T16:35:48.218Z,100789.89
2017-10-11T16:38:22.543Z,100788.88
2017-10-11T16:40:55.066Z,100781.14
2017-10-11T16:43:29.257Z,100782.22
2017-10-11T16:46:03.871Z,100777.12
2017-10-11T16:48:38.441Z,100782.11
2017-10-11T16:51:12.976Z,100784.80
2017-10-11T16:53:47.086Z,100791.77
2017-10-11T16:56:20.998Z,100784.45
2017-10-11T16:58:54.802Z,100782.63
2017-10-11T17:01:27.669Z,100784.16
2017-10-11T17:04:02.895Z,100779.95
2017-10-11T17:06:37.524Z,100783.58
2017-10-11T17:09:10.853Z,100782.80
2017-10-11T17:11:44.158Z,100778.50
2017-10-11T17:14:18.236Z,100785.97
2017-10-11T17:16:52.162Z,100789.63
2017-10-11T17:19:27.475Z,100790.52
2017-10-11T17:22:05.916Z,100788.68
2017-10-11T17:24:39.713Z,100789.45
2017-10-11T17:27:13.715Z,100782.70
2017-10-11T17:29:46.923Z,100783.33
2017-10-11T17:32:22.809Z,100776.08
2017-10-11T17:34:57.864Z,100771.79
2017-10-11T17:37:33.849Z,100776.73
2017-10-11T17:40:09.725Z,100773.30
2017-10-11T17:42:45.619Z,100771.23
2017-10-11T17:45:20.244Z,100778.55
2017-10-11T17:47:52.606Z,100776.11
2017-10-11T17:50:27.253Z,100782.45
2017-10-11T17:53:00.462Z,100783.54
2017-10-11T17:55:32.845Z,100785.55
2017-10-11T17:58:07.502Z,100776.12
2017-10-11T18:00:40.212Z,100782.52
2017-10-11T18:03:14.257Z,100782.92
2017-10-11T18:05:47.342Z,100784.24
2017-10-11T18:08:19.930Z,100784.82
2017-10-11T18:10:53.471Z,100790.80
2017-10-11T18:13:26.460Z,100792.34
2017-10-11T18:16:02.887Z,100796.81
2017-10-11T18:18:36.147Z,100794.78
2017-10-11T18:21:09.984Z,100791.38
2017-10-11T18:23:42.552Z,100793.35
2017-10-11T18:26:18.362Z,100793.11
2017-10-11T18:28:50.488Z,100796.83
2017-10-11T18:31:27.145Z,100792.65
2017-10-11T18:34:01.449Z,100785.78
2017-10-11T18:36:36.719Z,100795.27
2017-10-11T18:39:08.745Z,100793.69
2017-10-11T18:41:41.220Z,100794.30
2017-10-11T18:44:16.268Z,100789.58
2017-10-11T18:46:51.520Z,100790.27
2017-10-11T18:49:38.480Z,100790.59
2017-10-11T18:52:13.370Z,100791.16
2017-10-11T18:54:48.272Z,100797.02
2017-10-11T18:57:21.952Z,100793.77
2017-10-11T18:59:55.337Z,100793.97
2017-10-11T19:02:40.621Z,100801.30
2017-10-11T19:05:16.215Z,100803.33
2017-10-11T19:07:50.142Z,100809.36
2017-10-11T19:10:24.584Z,100803.85
2017-10-11T19:12:56.765Z,100810.17
2017-10-11T19:18:20.391Z,100804.41
2017-10-11T19:20:52.786Z,100802.08
2017-10-11T19:23:27.789Z,100807.93
2017-10-11T19:26:06.604Z,100803.11
2017-10-11T19:28:43.150Z,100811.11
2017-10-11T19:31:15.905Z,100809.03
2017-10-11T19:33:48.607Z,100809.98
2017-10-11T19:36:24.693Z,100805.13
2017-10-11T19:38:58.710Z,100805.13
2017-10-11T19:41:32.663Z,100803.38
2017-10-11T19:44:11.717Z,100804.81
2017-10-11T19:46:44.630Z,100810.09
2017-10-11T19:49:26.263Z,100806.63
2017-10-11T19:52:04.608Z,100805.31
2017-10-11T19:54:38.246Z,100802.73
2017-10-11T19:57:18.795Z,100798.94
2017-10-11T20:00:08.022Z,100806.83
2017-10-11T20:02:47.272Z,100804.36
2017-10-11T20:05:23.726Z,100808.00
2017-10-11T20:07:58.217Z,100809.42
2017-10-11T20:10:31.263Z,100808.92
2017-10-11T20:13:06.084Z,100814.27
2017-10-11T20:15:42.342Z,100812.56
2017-10-11T20:18:16.623Z,100812.56
2017-10-11T20:20:57.316Z,100810.55
2017-10-11T20:23:37.548Z,100814.32
2017-10-11T20:26:15.603Z,100813.89
2017-10-11T20:28:52.202Z,100821.52
2017-10-11T20:31:28.244Z,100818.55
2017-10-11T20:34:07.025Z,100818.79
2017-10-11T20:36:41.483Z,100829.66
2017-10-11T20:39:18.228Z,100823.58
2017-10-11T20:41:52.446Z,100826.02
2017-10-11T20:44:26.786Z,100823.69
2017-10-11T20:47:03.842Z,100830.95
2017-10-11T20:49:38.106Z,100832.16
2017-10-11T20:52:17.526Z,100828.20
2017-10-11T20:54:56.071Z,100829.86
2017-10-11T20:57:32.317Z,100832.76
2017-10-11T21:00:13.437Z,100831.11
2017-10-11T21:02:47.856Z,100834.63
2017-10-11T21:05:23.822Z,100838.02
2017-10-11T21:07:57.882Z,100839.50
2017-10-11T21:10:30.612Z,100839.66
2017-10-11T21:13:06.095Z,100837.25
2017-10-11T21:15:39.196Z,100840.18
2017-10-11T21:18:21.186Z,100839.52
2017-10-11T21:20:56.062Z,100840.59
2017-10-11T21:26:02.610Z,100843.36
2017-10-11T21:28:34.667Z,100845.57
2017-10-11T21:31:07.132Z,100842.97
2017-10-11T21:33:39.382Z,100842.50
2017-10-11T21:36:11.836Z,100837.78
2017-10-11T21:38:43.860Z,100839.27
2017-10-11T21:41:16.132Z,100838.27
2017-10-11T21:43:48.791Z,100836.22
2017-10-11T21:46:21.759Z,100849.13
2017-10-11T21:48:54.004Z,100843.98
2017-10-11T21:51:26.429Z,100849.13
2017-10-11T21:53:58.484Z,100832.36
2017-10-11T21:56:30.811Z,100837.44
2017-10-11T21:59:03.256Z,100833.34
2017-10-11T22:01:35.505Z,100831.14
2017-10-11T22:04:07.471Z,100827.59
2017-10-11T22:06:39.552Z,100835.53
2017-10-11T22:09:11.520Z,100823.69
2017-10-11T22:11:44.222Z,100828.23
2017-10-11T22:14:16.537Z,100834.95
2017-10-11T22:16:48.611Z,100831.95
2017-10-11T22:19:21.831Z,100829.49
2017-10-11T22:21:54.268Z,100826.70
2017-10-11T22:24:26.792Z,100826.92
2017-10-11T22:26:59.295Z,100827.20
2017-10-11T22:29:31.301Z,100829.13
2017-10-11T22:32:05.707Z,100825.66
2017-10-11T22:34:38.092Z,100824.72
2017-10-11T22:37:11.390Z,100831.45
2017-10-11T22:39:43.362Z,100830.14
2017-10-11T22:42:17.420Z,100831.45
2017-10-11T22:44:49.760Z,100834.30
2017-10-11T22:47:24.586Z,100835.84
2017-10-11T22:49:56.925Z,100826.97
2017-10-11T22:52:29.785Z,100831.41
2017-10-11T22:55:02.837Z,100834.11
2017-10-11T22:57:35.080Z,100832.18
2017-10-11T23:00:08.987Z,100829.40
2017-10-11T23:02:41.033Z,100835.05
2017-10-11T23:05:14.270Z,100835.94
2017-10-11T23:07:47.229Z,100831.44
2017-10-11T23:10:19.749Z,100833.91
2017-10-11T23:12:52.054Z,100843.84
2017-10-11T23:15:24.845Z,100840.27
2017-10-11T23:17:57.032Z,100842.73
2017-10-11T23:20:29.404Z,100833.37
2017-10-11T23:23:02.809Z,100828.02
2017-10-11T23:25:35.545Z,100829.31
2017-10-11T23:28:07.656Z,100829.31
2017-10-11T23:30:39.649Z,100825.34
2017-10-11T23:33:12.215Z,100827.09
2017-10-11T23:35:44.338Z,100821.41
2017-10-11T23:38:16.681Z,100822.80
2017-10-11T23:40:48.917Z,100827.66
2017-10-11T23:43:22.137Z,100828.56
2017-10-11T23:45:54.533Z,100828.95
2017-10-11T23:48:27.238Z,100826.77
2017-10-11T23:50:59.280Z,100824.55
2017-10-11T23:53:31.595Z,100821.91
2017-10-11T23:56:04.741Z,100829.45
2017-10-11T23:58:37.026Z,100832.30
